Date,TemperatureHighF,TemperatureAvgF,TemperatureLowF,DewpointHighF,DewpointAvgF,DewpointLowF,HumidityHigh,HumidityAvg,HumidityLow,PressureMaxIn,PressureMinIn,WindSpeedMaxMPH,WindSpeedAvgMPH,GustSpeedMaxMPH,PrecipitationSumIn
2013-1-1,20.9,13.8,8.8,7.6,2.9,-0.4,73,61,43,29.24,29.15,12,4,15,0.00
2013-1-2,29.9,18.0,8.8,13.9,6.1,-1.5,70,59,44,29.21,29.10,14,6,18,0.00
2013-1-3,27.9,23.9,15.3,22.0,17.6,10.0,81,76,70,29.29,29.10,16,8,20,0.00
2013-1-4,34.1,22.8,11.5,21.1,14.8,6.0,80,71,57,29.27,29.14,26,11,31,0.00
2013-1-5,35.4,29.1,19.6,30.6,24.0,16.4,90,81,64,29.26,28.96,17,7,24,0.00
2013-1-6,34.7,26.8,18.5,30.5,20.5,14.9,85,76,66,29.34,28.94,21,7,27,0.00
2013-1-7,40.1,28.0,15.8,25.1,19.6,12.1,86,71,50,29.34,29.12,21,8,27,0.00
2013-1-8,42.0,32.9,24.3,28.8,25.0,20.4,85,73,56,29.19,29.04,20,7,28,0.00
2013-1-9,46.0,37.5,29.5,29.4,25.7,21.3,79,63,42,29.51,29.03,26,10,33,0.00
2013-1-10,45.1,34.7,23.0,38.3,25.8,18.4,94,71,36,29.52,28.92,11,4,14,0.47
2013-1-11,51.0,47.6,40.1,48.1,45.0,38.3,94,90,83,28.92,28.70,18,8,26,0.23
2013-1-12,51.2,39.9,27.9,45.9,33.0,22.8,85,76,66,29.03,28.75,22,9,27,0.20
2013-1-13,28.1,21.1,11.7,24.5,15.3,3.9,87,78,69,29.25,28.90,19,7,24,0.09
2013-1-14,24.1,16.2,9.4,10.3,6.8,3.3,76,66,47,29.45,29.25,12,4,15,0.00
2013-1-15,30.2,21.4,14.4,15.6,11.1,6.9,81,65,44,29.44,29.13,7,2,10,0.00
2013-1-16,33.4,26.5,16.2,26.5,17.7,9.5,81,69,54,29.13,28.85,22,8,31,0.00
2013-1-17,32.0,24.5,18.4,27.2,10.2,1.7,84,55,37,29.42,29.08,15,4,17,0.00
2013-1-18,41.3,30.8,18.2,28.4,21.0,10.9,78,67,56,29.43,28.93,27,10,38,0.00
2013-1-19,45.1,38.9,22.7,35.1,27.8,8.1,71,64,46,28.97,28.76,28,13,41,0.00
2013-1-20,22.7,14.3,9.7,8.4,0.6,-2.4,60,54,40,29.32,28.97,20,7,37,0.00
2013-1-21,11.9,6.9,1.8,1.0,-6.4,-10.8,66,53,42,29.28,29.14,20,9,27,0.00
2013-1-22,10.6,3.6,-3.4,-5.4,-8.6,-12.5,69,56,43,29.38,29.27,19,5,22,0.00
2013-1-23,18.2,13.5,8.1,11.4,3.4,-5.5,77,63,50,29.36,29.12,16,7,23,0.00
2013-1-24,19.3,11.8,2.5,7.7,-1.9,-7.9,68,54,36,29.63,29.37,16,5,19,0.00
2013-1-25,27.4,20.9,16.4,17.4,11.7,2.3,85,67,49,29.37,28.99,19,6,22,0.00
2013-1-26,27.9,19.3,8.1,14.6,6.0,1.7,75,56,37,29.41,29.20,8,3,13,0.00
2013-1-27,35.4,28.6,22.9,33.3,21.6,14.5,91,75,59,29.38,28.93,16,7,22,0.75
2013-1-28,46.0,41.0,35.6,43.7,38.3,33.5,94,89,79,28.99,28.85,19,6,24,0.08
2013-1-29,61.3,54.6,38.6,57.0,52.1,37.0,95,91,85,28.85,28.44,19,8,28,0.83
2013-1-30,46.4,32.0,18.5,44.7,28.5,12.1,93,86,72,28.66,28.27,20,6,25,0.28
2013-1-31,18.5,11.0,2.7,12.7,3.6,-4.6,81,71,64,29.17,28.66,21,11,29,0.00
2013-2-1,11.9,5.0,-2.2,7.8,-2.9,-9.2,84,69,60,29.35,29.17,21,9,22,0.00
2013-2-2,21.6,13.1,6.1,18.0,6.5,-2.8,88,74,62,29.17,29.03,16,5,18,0.00
2013-2-3,20.7,15.2,7.7,15.1,7.6,-1.5,85,71,60,29.08,28.97,15,6,22,0.00
2013-2-4,25.4,20.0,10.1,19.6,14.8,-0.9,87,80,58,29.05,28.90,12,4,15,0.00
2013-2-5,28.6,21.0,8.8,24.1,14.4,-1.6,87,75,56,29.11,28.83,16,5,22,0.00
2013-2-6,35.4,27.5,11.7,27.6,19.2,7.5,87,71,58,29.26,29.11,13,4,15,0.00
2013-2-7,33.6,32.4,28.4,31.0,29.1,25.4,91,87,75,29.13,28.90,13,4,19,0.49
2013-2-8,28.3,23.7,21.2,25.3,19.4,17.0,88,83,77,29.41,29.00,16,5,20,0.00
2013-2-9,31.3,26.4,20.2,23.9,20.5,16.3,85,78,69,29.41,29.11,15,5,19,0.00
2013-2-10,46.2,38.4,28.4,42.5,33.8,23.3,92,83,65,29.11,28.53,22,9,30,0.37
2013-2-11,42.6,31.9,27.0,32.0,23.1,18.2,74,69,65,29.05,28.55,36,17,43,0.01
2013-2-12,27.0,24.8,23.0,20.1,18.0,15.5,85,74,68,29.13,28.94,22,7,25,0.00
2013-2-13,40.6,31.3,21.6,30.6,25.1,18.4,88,78,60,28.94,28.76,16,6,18,0.00
2013-2-14,37.2,35.1,31.7,29.9,26.1,19.7,82,70,54,29.01,28.67,24,8,29,0.00
2013-2-15,31.9,25.1,17.5,22.7,12.0,5.8,76,57,39,29.21,29.01,16,5,21,0.00
2013-2-16,18.2,14.0,10.3,7.3,1.8,-1.6,69,58,47,29.21,29.14,14,4,20,0.00
2013-2-17,28.4,19.2,7.2,13.2,3.2,-2.4,72,51,30,29.23,29.01,14,4,16,0.00
2013-2-18,49.2,38.0,25.9,43.2,28.2,13.3,91,68,53,29.01,28.47,25,11,31,0.38
2013-2-19,25.7,13.4,8.8,20.1,6.3,0.6,81,72,65,29.20,28.60,29,14,36,0.00
2013-2-20,22.0,13.4,5.8,9.6,3.5,-2.9,76,64,53,29.37,29.20,11,4,16,0.00
2013-2-21,27.7,22.7,14.4,22.6,16.5,7.2,88,76,69,29.39,29.01,14,5,23,0.00
2013-2-22,32.7,27.2,23.4,28.0,22.8,19.4,89,83,75,29.02,28.83,20,8,25,0.02
2013-2-23,27.0,24.4,20.9,22.1,17.0,14.4,81,73,62,28.99,28.92,17,9,21,0.00
2013-2-24,37.9,26.0,14.9,20.1,16.1,10.0,81,67,47,29.17,28.99,8,3,11,0.00
2013-2-25,44.0,31.8,19.6,26.8,21.3,14.9,84,66,39,29.20,29.00,8,3,11,0.00
2013-2-26,35.2,32.8,30.6,30.1,27.4,24.1,92,81,64,29.00,28.58,24,8,28,0.02
2013-2-27,33.4,32.0,30.4,30.1,28.9,27.4,91,88,83,28.75,28.57,12,6,18,0.00
2013-2-28,34.8,31.6,26.3,28.8,25.1,17.3,87,76,65,29.11,28.75,14,6,21,0.00
2013-3-1,26.5,24.8,23.8,20.1,18.3,16.2,82,76,69,29.22,29.09,15,6,20,0.00
2013-3-2,29.5,22.9,13.9,17.3,12.7,7.0,78,65,48,29.22,29.18,11,4,14,0.00
2013-3-3,32.9,21.0,11.3,10.4,7.7,5.5,77,58,34,29.19,29.11,8,2,12,0.00
2013-3-4,31.9,24.9,13.0,22.6,16.0,7.1,78,69,52,29.15,29.03,11,3,16,0.00
2013-3-5,31.9,29.9,27.4,28.3,25.7,22.2,89,84,68,29.03,28.85,19,6,24,0.00
2013-3-6,32.7,29.3,26.5,24.7,22.9,20.9,81,76,69,29.33,29.03,15,5,19,0.00
2013-3-7,37.4,30.4,23.2,23.2,20.4,17.9,81,67,50,29.44,29.32,10,2,11,0.00
2013-3-8,40.6,31.0,18.2,24.6,21.3,15.1,91,68,48,29.50,29.32,12,4,15,0.00
2013-3-9,44.9,37.8,30.6,32.1,27.5,21.9,84,66,57,29.32,28.87,18,8,25,0.06
2013-3-10,48.0,44.0,40.8,45.5,41.2,32.0,94,90,62,28.90,28.66,14,6,19,1.00
2013-3-11,46.2,36.6,31.5,44.5,33.9,27.0,94,89,81,28.82,28.59,20,8,24,0.02
2013-3-12,33.6,29.9,24.8,27.6,23.1,18.2,88,75,61,29.04,28.82,27,12,32,0.00
2013-3-13,32.0,26.0,20.2,18.8,13.0,5.8,78,58,33,29.34,29.04,15,6,21,0.00
2013-3-14,35.2,28.8,22.1,28.1,19.5,11.3,86,68,41,29.34,29.10,10,5,14,0.00
2013-3-15,41.0,34.1,30.1,36.3,30.0,26.7,92,85,65,29.11,28.80,9,3,14,0.12
2013-3-16,32.3,30.4,28.8,30.0,25.0,18.3,92,80,63,29.16,28.77,14,6,19,0.00
2013-3-17,34.5,29.1,22.7,21.9,17.9,12.4,69,62,52,29.24,29.03,14,5,19,0.00
2013-3-18,33.4,29.1,20.2,29.6,23.3,11.1,89,79,65,29.03,28.65,26,8,36,0.01
2013-3-19,30.6,22.1,14.6,14.0,10.6,6.3,74,61,45,29.10,28.81,29,15,38,0.00
2013-3-20,23.6,17.6,11.3,11.1,4.6,0.0,73,56,47,29.11,29.05,19,7,28,0.00
2013-3-21,31.1,21.2,11.3,13.1,8.0,2.0,67,56,42,29.08,29.03,13,4,17,0.00
2013-3-22,39.3,27.8,18.0,17.7,13.0,8.8,71,55,33,29.11,29.03,9,3,13,0.00
2013-3-23,41.1,31.0,21.8,24.6,18.8,14.5,80,62,36,29.16,29.06,10,3,15,0.00
2013-3-24,36.5,32.3,29.9,27.4,23.4,21.0,86,69,56,29.07,28.72,22,7,26,0.00
2013-3-25,35.6,31.9,28.8,25.5,23.3,21.3,77,70,62,29.11,28.76,16,7,25,0.00
2013-3-26,42.4,35.2,31.1,24.7,22.5,19.8,74,60,40,29.28,29.11,12,4,16,0.00
2013-3-27,40.6,35.9,31.0,24.4,21.3,18.1,69,55,41,29.34,29.28,10,3,13,0.00
2013-3-28,49.1,38.2,28.1,23.0,19.9,15.4,68,49,30,29.37,29.31,10,3,16,0.00
2013-3-29,53.6,41.9,31.7,24.2,21.5,18.0,67,46,27,29.35,29.27,10,2,13,0.00
2013-3-30,57.0,45.2,31.9,39.4,29.3,19.5,75,54,38,29.28,28.89,20,7,23,0.00
2013-3-31,54.8,44.2,34.7,41.6,33.7,21.7,91,68,39,28.94,28.76,25,9,30,0.00
2013-4-1,38.8,32.7,27.5,22.1,14.7,10.1,62,48,32,29.22,28.94,17,5,22,0.00
2013-4-2,42.2,32.1,23.4,16.6,12.7,6.8,69,46,23,29.34,29.22,19,4,24,0.00
2013-4-3,45.6,33.1,24.8,16.8,12.8,5.2,65,44,20,29.47,29.34,12,3,15,0.00
2013-4-4,56.3,42.8,28.1,32.9,22.6,13.2,61,46,29,29.34,29.02,17,6,21,0.00
2013-4-5,47.1,39.6,31.7,31.6,23.7,13.0,76,54,38,29.27,29.06,15,5,18,0.00
2013-4-6,65.8,49.9,34.7,47.3,31.0,21.1,84,50,31,29.19,28.66,31,10,38,0.29
2013-4-7,59.9,46.6,37.2,46.9,36.4,29.8,82,68,42,29.01,28.67,19,7,26,0.00
2013-4-8,62.4,49.3,37.5,51.4,42.3,30.3,93,77,61,29.03,28.60,40,8,43,0.57
2013-4-9,50.7,41.2,39.0,44.5,38.2,36.3,92,88,79,29.04,28.90,16,6,24,0.06
2013-4-10,39.7,38.3,36.1,37.4,36.0,33.5,92,91,89,29.15,28.85,37,7,40,0.90
2013-4-11,44.4,39.7,36.6,42.5,37.6,33.9,94,92,89,28.92,28.62,20,6,25,0.28
2013-4-12,42.9,38.1,35.6,36.6,32.2,28.8,90,79,70,28.88,28.62,17,10,27,0.00
2013-4-13,43.3,37.0,33.4,29.6,27.4,24.3,81,68,52,29.03,28.88,22,8,24,0.00
2013-4-14,66.7,48.2,36.6,46.3,34.0,25.7,74,58,44,29.04,28.71,14,6,21,0.01
2013-4-15,63.6,53.8,41.5,51.9,46.0,36.3,91,75,52,29.03,28.72,25,8,39,0.39
2013-4-16,55.9,45.3,37.7,38.9,33.5,30.5,89,65,40,29.32,29.01,11,4,14,0.01
2013-4-17,45.8,42.5,40.2,44.3,37.4,29.3,94,82,58,29.34,28.84,20,5,26,1.48
2013-4-18,62.7,50.6,39.3,57.4,47.2,32.1,95,88,74,28.89,28.46,32,10,40,2.78
2013-4-19,39.3,36.3,31.1,32.4,27.7,23.0,87,70,58,28.96,28.53,32,16,40,0.09
2013-4-20,44.2,35.8,27.9,24.6,19.0,12.7,72,52,32,29.45,28.96,16,4,21,0.00
2013-4-21,53.0,42.2,30.4,30.3,23.5,16.1,74,49,30,29.54,29.35,21,7,21,0.00
2013-4-22,65.4,53.7,41.5,35.5,31.6,28.0,60,44,29,29.35,29.09,14,7,19,0.00
2013-4-23,56.1,46.8,36.5,48.5,40.7,33.4,90,80,44,29.09,28.95,12,5,16,0.47
2013-4-24,49.8,41.8,34.7,34.2,28.4,22.7,89,61,37,29.14,28.98,17,6,23,0.04
2013-4-25,49.6,43.5,38.6,35.1,29.8,26.2,86,59,41,29.35,29.08,20,8,26,0.03
2013-4-26,65.3,52.5,37.9,43.5,35.6,24.4,68,53,43,29.37,29.27,20,9,27,0.00
2013-4-27,68.1,56.8,43.8,45.7,40.2,34.2,91,57,29,29.33,29.05,15,5,17,0.00
2013-4-28,68.0,57.4,51.2,50.2,46.8,39.4,87,68,48,29.05,28.88,8,3,9,0.00
2013-4-29,71.9,61.8,50.3,54.1,50.2,47.7,91,68,43,28.97,28.83,21,8,26,0.00
2013-4-30,84.2,71.2,60.6,58.3,55.0,52.1,79,58,35,29.01,28.83,23,11,26,0.00
2013-5-1,82.7,73.6,62.4,58.0,52.0,47.1,79,49,29,29.19,29.01,15,7,20,0.00
2013-5-2,69.4,49.6,42.9,51.7,41.4,36.2,90,74,49,29.29,29.19,15,6,20,0.24
2013-5-3,49.6,43.9,38.4,46.7,41.1,35.4,93,89,84,29.21,29.01,14,5,21,0.12
2013-5-4,71.9,58.4,47.8,48.1,46.0,43.5,90,66,41,29.11,29.00,15,3,18,0.01
2013-5-5,72.5,60.1,48.0,46.6,42.2,38.5,82,54,32,29.10,29.04,11,4,17,0.00
2013-5-6,74.3,60.8,50.0,43.1,37.5,30.2,73,45,21,29.10,29.04,15,3,20,0.00
2013-5-7,78.2,63.8,49.1,43.5,39.3,31.6,73,43,24,29.11,29.05,9,3,12,0.00
2013-5-8,81.6,64.7,47.3,47.5,42.7,39.3,84,49,23,29.10,29.03,9,2,12,0.00
2013-5-9,72.1,60.3,46.5,59.0,50.1,44.1,92,70,47,29.03,28.90,18,3,31,0.33
2013-5-10,46.7,45.4,43.3,44.9,42.4,40.7,93,89,84,29.03,28.85,18,6,22,0.01
2013-5-11,57.0,48.4,41.3,46.8,36.3,23.0,93,66,32,29.09,28.88,20,6,24,0.00
2013-5-12,53.9,45.0,36.1,32.5,25.5,20.7,68,48,28,29.16,29.09,16,5,22,0.00
2013-5-13,63.8,50.2,33.6,35.3,28.8,19.7,87,48,19,29.22,29.04,13,3,16,0.00
2013-5-14,90.3,71.5,51.6,56.6,45.5,32.4,56,41,19,29.03,28.71,17,7,24,0.00
2013-5-15,83.8,74.6,62.0,56.1,48.4,37.0,72,41,19,28.91,28.70,19,6,23,0.00
2013-5-16,83.6,68.3,54.8,50.4,43.6,37.1,72,43,22,29.03,28.90,11,3,16,0.00
2013-5-17,70.8,60.3,53.4,50.6,44.6,37.0,73,56,44,29.11,29.01,11,3,17,0.00
2013-5-18,80.2,67.0,51.9,60.9,55.1,44.9,90,67,45,29.12,29.01,11,4,14,0.00
2013-5-19,85.4,73.5,59.7,63.2,59.2,54.7,86,63,42,29.03,28.83,16,5,20,0.00
2013-5-20,86.3,77.8,65.3,67.3,58.8,52.1,91,54,31,28.86,28.77,20,9,30,0.30
2013-5-21,80.0,71.0,62.7,62.8,59.0,53.5,92,68,41,28.82,28.73,21,8,31,0.01
2013-5-22,71.2,65.6,57.2,63.7,58.7,52.9,94,79,54,28.82,28.70,19,6,24,0.47
2013-5-23,57.2,49.3,38.8,54.3,43.7,33.1,93,81,64,29.34,28.82,17,7,23,0.01
2013-5-24,62.4,48.6,36.5,36.5,32.6,28.5,80,56,31,29.48,29.33,10,4,16,0.00
2013-5-25,56.8,49.6,40.4,40.7,36.3,31.6,80,60,43,29.45,29.34,10,2,11,0.00
2013-5-26,68.0,53.9,40.8,51.3,41.9,33.5,81,65,37,29.35,29.19,12,3,17,0.04
2013-5-27,59.9,55.5,51.0,54.3,51.8,43.8,93,87,74,29.20,28.92,9,3,14,0.00
2013-5-28,75.7,67.0,54.6,67.9,62.2,52.5,95,85,71,28.94,28.77,20,6,29,0.40
2013-5-29,82.9,72.2,63.1,67.5,62.9,59.0,91,74,51,29.02,28.84,18,7,22,0.03
2013-5-30,82.5,74.8,62.7,69.2,63.9,56.9,92,69,56,28.99,28.81,26,11,34,0.17
2013-5-31,75.7,69.2,62.6,66.9,62.4,57.3,93,80,60,28.93,28.78,18,8,24,0.22
2013-6-1,74.3,67.4,61.7,67.3,61.1,56.8,91,80,63,28.81,28.72,21,8,22,0.06
2013-6-2,62.6,54.9,44.4,57.3,48.6,42.0,92,79,63,29.09,28.78,15,4,17,0.00
2013-6-3,70.1,55.8,41.5,47.1,41.2,37.2,94,62,33,29.17,29.08,9,3,13,0.00
2013-6-4,72.6,59.9,47.8,47.3,41.6,35.5,82,53,27,29.22,29.14,10,3,14,0.00
2013-6-5,65.8,57.9,52.7,55.7,48.2,42.1,87,70,53,29.17,29.01,10,4,14,0.08
2013-6-6,63.3,56.2,51.4,54.2,49.6,44.7,91,79,57,29.02,28.95,11,4,17,0.20
2013-6-7,69.0,58.3,50.9,50.4,43.9,35.7,79,60,34,29.02,28.97,14,4,19,0.00
2013-6-8,75.7,62.2,48.9,46.9,41.8,34.4,80,51,25,29.07,28.98,8,2,10,0.00
2013-6-9,78.9,68.0,52.8,59.5,52.5,45.2,80,59,41,29.07,28.88,15,5,21,0.01
2013-6-10,79.3,67.7,60.8,64.8,60.5,57.9,92,79,53,28.93,28.83,10,2,11,0.08
2013-6-11,83.6,72.5,60.8,63.3,60.0,58.1,93,67,44,29.00,28.86,11,4,17,0.02
2013-6-12,87.0,71.2,62.9,68.8,63.4,60.5,93,77,54,29.00,28.68,16,4,28,1.11
2013-6-13,78.2,66.6,56.4,60.9,54.3,49.7,92,66,43,29.12,28.72,18,5,20,0.00
2013-6-14,77.5,63.6,52.7,54.2,50.0,46.2,85,63,37,29.20,29.08,12,3,14,0.00
2013-6-15,79.1,67.9,56.3,66.8,59.4,46.2,89,74,62,29.12,28.92,15,4,28,0.12
2013-6-16,85.1,75.9,67.4,65.4,59.8,52.5,85,60,33,28.99,28.94,25,5,34,0.02
2013-6-17,88.1,74.4,59.7,63.8,53.7,48.3,79,52,26,29.01,28.92,16,5,22,0.09
2013-6-18,70.7,61.4,53.4,55.6,50.4,42.9,89,68,47,29.14,29.00,15,5,19,0.00
2013-6-19,77.0,63.3,49.1,53.1,46.3,36.1,85,56,33,29.20,29.13,9,3,14,0.00
2013-6-20,86.7,71.8,54.1,62.4,53.5,35.7,74,53,35,29.22,29.12,10,3,13,0.00
2013-6-21,80.0,72.0,66.7,66.6,63.1,57.4,92,74,61,29.23,28.93,22,5,23,0.90
2013-6-22,79.1,72.0,66.2,70.7,66.4,63.3,93,82,68,29.19,29.02,14,5,19,0.66
2013-6-23,86.0,74.8,65.6,70.7,65.4,60.1,91,73,57,29.11,28.98,14,7,24,0.00
2013-6-24,83.6,72.2,66.3,69.5,65.2,62.0,92,79,53,29.13,28.93,25,7,42,0.10
2013-6-25,83.4,73.5,64.9,72.9,67.5,62.1,92,82,68,29.04,28.88,18,5,24,0.27
2013-6-26,78.4,70.9,65.3,69.0,65.4,62.8,94,83,68,28.91,28.80,13,4,22,0.63
2013-6-27,89.2,75.6,65.8,71.4,65.3,59.9,94,73,44,28.86,28.77,22,4,25,0.39
2013-6-28,80.6,72.0,66.0,63.5,59.6,55.9,87,66,44,28.79,28.69,15,4,21,0.04
2013-6-29,71.2,65.5,61.5,62.2,58.6,52.6,91,79,58,28.85,28.67,17,6,22,0.00
2013-6-30,77.7,67.5,59.3,58.6,51.6,39.2,84,59,34,29.06,28.85,17,8,24,0.00
2013-7-1,76.6,67.1,56.3,52.1,47.6,42.4,77,51,31,29.14,29.05,16,6,22,0.00
2013-7-2,71.6,62.2,55.9,53.3,51.4,47.5,86,69,46,29.15,29.12,11,4,17,0.00
2013-7-3,67.8,62.9,58.4,61.8,58.6,52.8,91,85,78,29.13,29.08,7,3,10,0.06
2013-7-4,81.8,70.4,58.6,62.1,59.6,56.8,94,71,44,29.16,29.09,13,4,17,0.00
2013-7-5,84.3,74.5,63.1,63.9,59.7,52.0,86,62,33,29.16,29.08,13,4,17,0.00
2013-7-6,83.6,73.7,65.1,65.4,62.4,58.1,89,69,43,29.14,29.04,9,4,11,0.00
2013-7-7,87.2,78.2,69.4,68.3,66.1,63.8,86,68,46,29.09,29.02,14,5,16,0.00
2013-7-8,85.6,77.2,69.6,74.3,69.7,66.8,91,78,65,29.10,29.00,18,7,21,0.61
2013-7-9,84.5,78.6,72.6,75.6,72.6,68.9,93,82,67,29.06,28.94,23,6,35,0.21
2013-7-10,82.4,76.7,63.6,73.9,63.2,52.6,92,65,42,29.08,28.91,13,4,18,0.00
2013-7-11,80.7,69.7,59.9,59.2,53.6,48.1,87,59,34,29.18,29.08,10,3,15,0.00
2013-7-12,84.3,69.7,56.1,56.0,49.6,36.7,88,53,20,29.23,29.15,7,2,11,0.00
2013-7-13,84.2,72.8,59.3,60.3,56.8,50.8,87,60,32,29.23,29.16,12,3,14,0.00
2013-7-14,87.8,77.3,66.5,66.8,64.4,59.8,86,66,42,29.29,29.21,12,3,17,0.00
2013-7-15,91.9,77.8,68.3,74.6,69.2,65.2,90,76,44,29.34,29.28,8,3,13,0.01
2013-7-16,90.3,82.2,73.0,72.8,71.1,69.0,91,70,52,29.37,29.31,14,6,16,0.00
2013-7-17,91.7,84.0,75.5,72.5,70.2,66.9,81,64,45,29.38,29.24,14,6,17,0.00
2013-7-18,92.1,84.8,77.3,73.0,71.2,67.8,84,65,46,29.26,29.03,16,8,24,0.00
2013-7-19,93.0,84.0,69.0,72.5,69.0,62.4,90,62,41,29.03,28.83,28,11,49,0.82
2013-7-20,87.8,75.7,66.5,68.6,62.5,51.7,93,67,30,29.03,28.88,10,3,16,0.66
2013-7-21,85.6,72.4,62.2,66.7,62.9,59.1,92,74,41,29.04,28.92,17,4,22,0.01
2013-7-22,85.2,75.0,65.3,68.6,65.0,59.0,93,73,42,28.96,28.82,15,5,34,0.13
2013-7-23,77.5,69.4,58.1,62.8,57.9,51.1,85,68,42,29.05,28.75,22,5,23,0.02
2013-7-24,73.0,63.1,53.0,53.9,51.2,46.3,91,67,41,29.13,29.04,12,3,14,0.00
2013-7-25,78.8,68.0,54.6,56.9,53.5,50.3,92,62,41,29.17,29.10,12,4,14,0.00
2013-7-26,70.3,65.6,61.5,64.6,59.7,56.1,92,82,61,29.10,28.95,12,6,20,0.57
2013-7-27,63.3,59.0,54.6,57.3,49.4,43.1,90,71,50,28.99,28.93,13,5,22,0.00
2013-7-28,68.3,59.5,53.0,50.1,47.4,44.7,83,65,44,29.09,28.93,15,7,23,0.00
2013-7-29,75.7,63.9,55.0,57.6,52.8,50.1,88,68,44,29.24,29.08,10,3,14,0.00
2013-7-30,72.8,64.0,56.1,64.0,58.2,53.1,92,82,55,29.24,29.14,10,3,12,0.07
2013-7-31,74.4,66.5,62.7,64.9,62.2,60.5,93,86,67,29.14,29.02,11,4,18,0.34
2013-8-1,78.4,69.3,60.8,60.5,55.5,49.4,93,65,37,29.06,29.01,12,3,18,0.00
2013-8-2,83.8,72.0,61.1,65.6,60.3,55.7,91,68,47,29.03,28.93,11,4,15,0.25
2013-8-3,78.9,69.7,59.9,58.5,52.5,43.1,82,57,29,29.18,29.01,11,4,15,0.00
2013-8-4,76.2,65.9,56.3,59.8,55.1,49.6,86,69,39,29.27,29.18,9,3,15,0.00
2013-8-5,72.1,64.4,56.6,61.4,56.7,51.2,87,76,56,29.19,28.95,16,4,21,0.05
2013-8-6,82.5,72.2,66.3,70.2,66.3,61.3,92,82,64,28.97,28.90,12,5,15,0.02
2013-8-7,86.5,75.9,64.2,70.5,66.5,61.5,92,74,44,29.03,28.87,12,6,16,0.01
2013-8-8,77.7,68.3,61.3,61.8,56.1,50.2,93,68,39,29.10,29.03,11,3,17,0.00
2013-8-9,80.7,70.7,57.2,64.5,58.0,48.9,88,65,47,29.11,29.04,13,4,17,0.00
2013-8-10,81.5,70.5,61.1,62.4,57.1,50.1,90,65,36,29.20,29.11,9,2,10,0.00
2013-8-11,78.9,68.4,58.2,66.3,59.6,53.5,92,76,46,29.20,29.10,10,2,14,0.21
2013-8-12,81.1,72.4,67.6,68.2,64.3,60.0,92,76,57,29.11,28.95,16,5,19,0.00
2013-8-13,69.9,62.7,53.9,60.5,49.6,42.8,87,64,39,29.21,29.01,15,5,19,0.00
2013-8-14,72.5,60.9,50.7,52.2,48.7,43.7,91,67,38,29.28,29.20,8,2,12,0.00
2013-8-15,75.9,64.4,56.1,55.2,51.2,48.1,78,64,40,29.23,29.16,12,4,13,0.00
2013-8-16,81.3,67.7,57.2,54.7,51.3,48.1,84,59,33,29.26,29.19,9,2,13,0.00
2013-8-17,80.4,67.6,54.8,61.0,53.6,48.3,93,65,33,29.31,29.23,9,2,14,0.00
2013-8-18,82.2,68.4,55.2,61.8,55.5,52.0,93,67,36,29.28,29.17,8,2,12,0.00
2013-8-19,82.9,71.4,59.9,62.5,58.0,54.2,84,64,41,29.19,29.11,12,4,17,0.00
2013-8-20,84.5,74.5,64.9,62.9,61.2,58.6,87,65,41,29.19,29.10,15,5,18,0.00
2013-8-21,87.6,77.3,67.1,68.8,63.8,62.0,85,65,44,29.15,29.03,20,7,22,0.05
2013-8-22,75.5,69.9,63.8,68.6,64.7,61.6,93,83,65,29.22,29.08,12,4,27,0.80
2013-8-23,80.9,68.8,57.9,62.0,53.7,44.4,93,64,28,29.25,29.17,12,3,17,0.00
2013-8-24,83.8,71.2,56.3,63.1,58.4,53.8,94,67,43,29.32,29.24,12,4,14,0.00
2013-8-25,86.3,76.2,65.6,68.5,61.7,53.7,70,61,53,29.31,29.21,17,7,19,0.00
2013-8-26,88.8,78.6,68.0,72.3,67.0,60.6,80,68,55,29.23,29.07,17,8,22,0.00
2013-8-27,91.0,81.1,74.4,72.4,69.8,68.2,81,69,50,29.08,28.93,21,8,26,0.00
2013-10-7,67.6,60.0,48.2,45.8,43.5,41.1,85,56,39,29.13,29.01,11,3,19,0.00
2013-10-8,74.8,59.6,44.4,48.4,45.4,42.0,92,63,33,29.24,29.13,10,3,14,0.00
2013-10-9,72.1,58.9,47.4,51.0,44.6,38.4,88,62,30,29.30,29.20,10,3,12,0.00
2013-10-10,73.0,60.5,48.5,51.7,49.1,45.1,93,69,38,29.23,29.11,10,3,11,0.00
2013-10-11,74.6,63.6,54.5,53.7,50.1,47.3,82,63,43,29.14,29.01,14,5,18,0.00
2013-10-12,67.2,61.5,51.2,61.2,51.2,39.9,89,69,49,29.23,29.01,12,6,20,0.25
2013-10-13,63.5,51.8,42.9,41.5,37.7,32.5,88,61,31,29.45,29.23,9,3,14,0.00
2013-10-14,61.5,50.1,39.0,45.7,40.6,35.3,88,72,47,29.45,29.18,10,3,15,0.00
2013-10-15,62.7,55.9,48.3,58.9,48.3,40.2,91,75,67,29.18,28.82,15,6,20,0.01
2013-10-16,51.2,48.8,45.6,45.4,42.8,39.7,89,79,74,28.99,28.89,20,8,22,0.00
2013-10-17,51.8,47.3,42.2,45.4,42.6,38.6,90,83,61,28.98,28.88,14,5,20,0.13
2013-10-18,48.2,43.8,38.3,40.2,37.1,34.8,88,77,64,29.01,28.88,19,6,24,0.00
2013-10-19,51.2,44.6,39.0,38.3,35.2,29.7,85,70,43,28.98,28.83,22,6,31,0.01
2013-10-20,58.2,48.1,36.8,45.4,38.6,33.0,87,70,53,28.93,28.78,13,4,17,0.00
2013-10-21,53.9,43.2,33.8,43.4,30.1,22.0,74,60,45,29.01,28.84,18,8,27,0.00
2013-10-22,40.2,35.3,30.2,33.8,26.8,21.8,85,71,48,29.03,28.96,10,4,15,0.00
2013-10-23,43.7,36.0,28.8,28.7,25.5,21.9,84,66,42,29.06,28.96,16,4,23,0.00
2013-10-24,40.4,36.3,32.1,27.4,23.7,18.2,75,60,44,29.33,29.05,12,5,16,0.00
2013-10-25,50.0,39.9,28.3,26.8,23.7,20.7,73,53,37,29.43,29.07,20,8,30,0.00
2013-10-26,52.7,45.0,38.1,33.9,27.6,24.0,64,50,35,29.13,28.90,25,8,28,0.00
2013-10-27,53.2,42.5,30.8,28.9,27.2,24.5,81,56,37,29.11,29.01,16,6,23,0.00
2013-10-28,53.0,43.0,36.1,39.7,33.6,28.3,86,69,56,29.41,29.10,14,4,19,0.00
2013-10-29,57.9,45.4,35.4,41.0,36.0,30.8,89,71,39,29.40,29.19,8,3,10,0.00
2013-10-30,59.3,53.3,47.8,57.0,49.5,40.0,92,87,72,29.18,28.80,12,4,14,0.38
2013-10-31,62.0,57.6,44.6,59.2,54.1,38.4,92,88,78,28.81,28.29,19,8,30,0.43
2013-11-1,46.7,44.2,41.1,41.8,38.7,35.3,89,81,73,28.79,28.45,21,9,32,0.01
2013-11-2,45.8,40.8,35.9,39.7,35.7,32.9,89,82,69,29.19,28.79,8,3,13,0.00
2013-11-3,51.9,41.8,30.4,37.5,32.2,27.6,89,70,43,29.34,29.19,14,3,16,0.00
2013-11-4,56.1,49.3,42.4,42.1,37.2,33.6,73,63,48,29.31,29.13,21,9,26,0.00
2013-11-5,53.2,51.3,49.4,48.6,45.2,42.2,89,79,70,29.31,28.99,28,7,30,0.01
2013-11-6,55.9,45.9,33.0,52.7,40.8,23.8,90,82,62,29.21,28.82,18,7,25,0.87
2013-11-7,41.5,34.8,29.7,30.1,26.5,23.1,81,71,54,29.27,29.21,15,6,20,0.00
2013-11-8,45.8,38.4,28.3,30.5,27.6,24.3,86,66,50,29.36,28.96,19,6,27,0.00
2013-11-9,56.1,48.2,39.5,38.5,34.2,22.1,71,58,46,29.15,28.88,25,12,35,0.00
2013-11-10,47.6,40.7,33.4,29.7,27.0,23.4,72,58,43,29.37,29.15,17,6,22,0.00
2013-11-11,45.5,35.8,23.6,34.0,26.5,13.2,88,69,56,29.54,29.12,17,7,22,0.03
2013-11-12,31.7,24.4,19.8,16.6,14.1,12.4,78,64,46,29.71,29.54,12,5,17,0.00
2013-11-13,39.3,28.9,19.3,19.1,14.5,10.8,72,55,35,29.60,29.19,22,10,27,0.00
2013-11-14,47.8,39.0,31.1,25.2,21.6,17.8,58,49,40,29.19,28.97,22,10,28,0.00
2013-11-15,49.4,41.4,34.7,34.7,28.7,24.7,79,61,44,29.02,28.96,14,7,18,0.00
2013-11-16,59.5,50.2,40.4,54.0,46.1,32.1,90,85,71,28.98,28.62,24,11,31,0.25
2013-11-17,66.7,54.0,40.4,60.0,48.5,33.1,90,81,66,28.77,28.23,33,13,46,0.75
2013-11-18,41.0,36.3,28.8,33.3,26.3,21.1,78,67,52,29.29,28.78,22,8,30,0.00
2013-11-19,41.7,32.5,23.2,28.2,22.7,17.8,80,67,47,29.40,29.29,12,3,14,0.00
2013-11-20,43.3,36.6,30.1,35.1,27.1,23.4,87,69,48,29.31,29.13,16,7,25,0.11
2013-11-21,47.8,43.7,39.0,41.8,38.1,35.1,86,80,72,29.25,29.14,7,3,9,0.00
2013-11-22,42.2,34.3,25.2,37.1,26.9,17.3,85,74,60,29.50,29.24,15,5,20,0.01
2013-11-23,25.0,20.0,13.5,17.2,6.6,-0.9,71,55,44,29.71,29.45,21,7,23,0.00
2013-11-24,25.4,17.8,9.2,7.7,3.0,-0.1,70,52,36,29.72,29.37,17,6,23,0.00
2013-11-25,30.2,26.7,20.9,25.0,16.9,6.5,81,67,48,29.37,29.09,23,10,25,0.00
2013-11-26,32.5,27.1,14.6,24.7,17.4,2.0,81,67,48,29.19,29.05,18,5,23,0.00
2013-11-27,26.6,18.5,9.5,11.5,6.4,1.5,71,59,44,29.27,29.18,12,4,20,0.00
2013-11-28,33.0,25.1,20.2,14.4,11.4,8.1,71,55,44,29.51,29.21,14,5,18,0.00
2013-11-29,34.7,26.3,14.4,18.9,14.3,9.0,82,61,44,29.64,29.41,11,4,16,0.00
2013-11-30,48.7,36.9,28.3,28.9,24.6,18.7,75,61,45,29.41,29.09,13,6,17,0.00
2013-12-1,44.2,34.5,29.7,29.4,26.3,24.2,82,72,49,29.15,29.02,9,2,12,0.00
2013-12-2,42.4,35.4,27.5,32.3,27.1,23.9,89,72,48,29.01,28.80,9,3,13,0.06
2013-12-3,48.3,42.0,35.2,46.2,39.6,32.3,92,90,88,28.79,28.71,14,4,14,0.02
2013-12-4,54.5,48.7,36.3,51.2,45.4,31.0,92,88,77,28.79,28.56,21,7,32,0.00
2013-12-5,36.1,24.8,18.4,31.0,15.7,6.9,82,68,57,29.29,28.73,24,11,31,0.00
2013-12-6,18.5,15.1,9.9,8.2,4.9,0.0,70,63,55,29.55,29.26,13,4,14,0.00
2013-12-7,18.5,10.7,5.2,2.0,-0.2,-1.8,74,61,45,29.70,29.55,9,3,12,0.00
2013-12-8,24.5,19.2,10.4,20.7,12.4,-0.2,86,74,58,29.60,28.96,10,3,14,0.00
2013-12-9,23.2,13.0,-2.5,19.1,6.0,-9.5,84,72,62,29.24,28.95,25,11,31,0.00
2013-12-10,19.4,9.4,-5.6,9.0,0.4,-11.0,77,66,56,29.30,29.02,24,10,32,0.00
2013-12-11,18.4,10.0,-2.9,10.2,1.0,-11.8,81,66,47,29.56,29.27,11,5,17,0.00
2013-12-12,16.2,7.7,-5.0,7.4,-1.5,-12.4,71,65,56,29.54,29.22,21,8,26,0.00
2013-12-13,32.0,23.5,12.6,22.8,14.8,7.1,79,69,53,29.21,29.13,9,3,13,0.00
2013-12-14,29.9,26.9,19.6,26.1,22.5,14.6,88,83,73,29.14,28.95,12,5,16,0.00
2013-12-15,19.8,12.4,8.1,14.7,3.9,-4.1,80,68,53,29.14,28.95,20,8,24,0.00
2013-12-16,19.6,12.3,2.7,13.8,2.8,-7.9,82,65,51,29.17,29.04,10,4,14,0.00
2013-12-17,32.5,23.3,14.4,21.7,15.7,9.9,85,73,55,29.11,28.97,18,10,24,0.00
2013-12-18,34.1,24.4,14.2,23.5,13.4,6.3,75,63,39,29.17,28.86,19,9,26,0.00
2013-12-19,37.2,32.6,28.1,31.3,27.3,23.5,89,80,67,28.97,28.84,10,3,14,0.03
2013-12-20,33.9,32.2,29.2,31.1,29.0,26.0,89,87,84,28.86,28.77,13,5,16,0.08
2013-12-21,33.0,29.9,27.2,30.1,26.9,24.2,90,88,85,28.90,28.64,12,4,22,0.09
2013-12-22,32.3,27.9,22.5,28.6,23.4,17.0,89,83,78,29.14,28.64,14,4,20,0.18
2013-12-23,23.9,9.0,-4.5,19.4,3.0,-11.2,82,75,70,29.45,29.14,18,9,21,0.00
2013-12-24,15.7,4.3,-5.0,9.3,-3.2,-11.6,77,70,58,29.56,29.34,13,6,17,0.00
2013-12-25,24.8,21.7,15.7,20.9,16.3,8.8,86,79,69,29.35,29.11,18,9,22,0.00
2013-12-26,32.0,23.2,12.8,26.8,16.1,6.0,80,73,66,29.30,29.12,17,7,21,0.00
2013-12-27,39.7,32.4,21.1,29.5,25.2,17.8,89,75,60,29.30,29.10,19,6,24,0.00
2013-12-28,45.8,38.7,30.4,32.5,29.5,25.7,83,69,56,29.12,28.85,17,8,21,0.00
2013-12-29,38.1,25.4,6.8,29.2,17.9,-1.5,86,73,61,29.22,28.80,16,6,20,0.00
2013-12-30,7.9,2.9,-3.6,-0.6,-6.2,-11.9,75,65,54,29.34,29.19,9,4,12,0.00
2013-12-31,9.9,5.6,-0.2,3.8,-0.8,-6.2,79,74,65,29.35,29.19,14,4,16,0.00
2014-1-1,19.3,14.1,7.2,14.8,9.7,1.8,84,82,77,29.31,29.19,13,6,17,0.00
2014-1-2,14.4,9.8,-3.4,9.8,3.1,-10.5,82,74,61,29.42,29.16,15,6,18,0.00